Simmons Army Air Field
KFBG : now visible

Airfield :











YOU CAN JOIN US ON...

 
LOGIN :

Register | Disclaimer

   EN    FR    IT 

 









Legend :    VFR   Marginal VFR   IFR   Intensive IFR   Very Intensive IFR
Visi :
Ceiling :
>= 8 km
>= 3000ft
5 to 8 km
1000 to 3000 ft
1500m to 5 km
500 to 1000 ft
800 to 1500m
200 to 500 ft
< 800m
< 200 ft
Symbols :   Thunderstorms  Fog  Heavy snow  Heavy precipitations  Wind > 20 kt






- Airport Elevation : 244 ft


KFBG - Simmons Army Air Field

CURRENT METAR :
  • 171156Z AUTO 35004KT 10SM OVC003 07/07 A3013 RMK AO2 SLP207 60002 70014 T00720072 10087 20072 51020 $

EXPIRED METARs :
  • 171131Z AUTO 01003KT 10SM OVC004 07/07 A3012 RMK AO2 SLPNO $
  • 171056Z AUTO 33004KT 10SM OVC005 08/08 A3012 RMK AO2 SLPNO T00760076 $
  • 171040Z AUTO 33004KT 10SM OVC004 08/08 A3012 RMK AO2 SLPNO $
  • 171006Z AUTO 31006KT 10SM OVC003 08/08 A3010 RMK AO2 SLP196 $
  • 170956Z AUTO 31005KT 10SM OVC002 08/08 A3009 RMK AO2 SLP193 T00810081 $
  • 170926Z AUTO 31003KT 10SM OVC002 08/08 A3008 RMK AO2 SLP190 $

TAF TAF KFBG
Valid from the 17 at 10:00 until the 18 at 16:00 UTC


171000Z 1710/1816 VRB06KT 8000 BR BKN002 OVC010 QNH3007INS
BECMG 1714/1715 04006KT 9999 NSW SCT010 SCT030 QNH3017INS
BECMG 1802/1803 06006KT 9999 SCT015 SCT050 QNH3020INS
BECMG 1810/1811 07006KT 8000 BR BKN015 OVC030 QNH3025INS
BECMG 1814/1815 VRB06KT 6000 BR BKN003 OVC020 QNH3019INS TX14/1720Z TN06/1711Z



MET'MAP, your aeronautical weather chart ! - Copyright ORBIFLY December 2007 - Disclaimer

ORBIFLY MET'MAP TEAM :

Programming & Development : Alexandra Zaïnal
Concept & original design : Baudouin d'Aumeries
Assistance for programming : Marc-Olivier Méhu
Technical & hardware support : Manuel Goepfert

Contact : metmap@orbifly.com




SOURCES & CREDITS :

   NOAA       Earth
Advisory